Time;durP1;ratioP1;P1;durP2;ratioP2;P2;SDS_P1;SDS_P2;PMS_P1;PMS_P2;Temp;Humidity;BMP_temperature;BMP_pressure;BME280_temperature;BME280_humidity;BME280_pressure;Samples;Min_cycle;Max_cycle;Signal;HPM_P1;HPM_P2
2022/09/22 00:01:08;;;;;;;;;;;;;;;19.64;71.20;97178.63;575976;246;62967;-66
2022/09/22 00:03:36;;;;;;;;;;;;;;;19.63;71.23;97166.34;576189;246;68714;-66
2022/09/22 00:06:05;;;;;;;;;;;;;;;19.62;70.96;97162.09;579664;244;66647;-66
2022/09/22 00:08:34;;;;;;;;;;;;;;;19.63;71.26;97162.88;581172;244;65099;-66
2022/09/22 00:11:03;;;;;;;;;;;;;;;19.62;71.28;97162.09;581195;244;69127;-66
2022/09/22 00:13:32;;;;;;;;;;;;;;;19.61;71.11;97160.46;581200;244;66638;-66
2022/09/22 00:16:00;;;;;;;;;;;;;;;19.62;70.82;97162.09;581173;244;65095;-66
2022/09/22 00:18:28;;;;;;;;;;;;;;;19.62;70.93;97155.95;581174;244;68800;-66
2022/09/22 00:20:56;;;;;;;;;;;;;;;19.62;70.91;97155.95;581191;244;68721;-66
2022/09/22 00:23:24;;;;;;;;;;;;;;;19.61;71.21;97155.12;581176;244;64907;-66
2022/09/22 00:25:51;;;;;;;;;;;;;;;19.62;71.28;97146.09;581223;244;68784;-66
2022/09/22 00:28:20;;;;;;;;;;;;;;;19.62;71.10;97156.75;581172;244;66742;-66
2022/09/22 00:30:48;;;;;;;;;;;;;;;19.61;70.78;97149.00;581195;244;65063;-66
2022/09/22 00:33:15;;;;;;;;;;;;;;;19.62;70.73;97148.75;581162;244;66680;-66
2022/09/22 00:35:43;;;;;;;;;;;;;;;19.61;71.13;97149.00;581181;244;68738;-66
2022/09/22 00:38:11;;;;;;;;;;;;;;;19.62;71.48;97139.95;581197;244;65092;-66
2022/09/22 00:40:38;;;;;;;;;;;;;;;19.61;71.38;97143.67;581163;244;68848;-66
2022/09/22 00:43:13;;;;;;;;;;;;;;;19.61;71.42;97141.00;581177;244;68784;-66
2022/09/22 00:45:41;;;;;;;;;;;;;;;19.61;71.36;97144.47;581163;244;65155;-66
2022/09/22 00:48:08;;;;;;;;;;;;;;;19.60;71.39;97145.53;581183;244;68717;-66
2022/09/22 00:50:36;;;;;;;;;;;;;;;19.60;71.36;97142.87;581186;244;68465;-66
2022/09/22 00:53:05;;;;;;;;;;;;;;;19.61;71.09;97139.13;581207;244;65035;-67
2022/09/22 00:55:34;;;;;;;;;;;;;;;19.60;71.35;97132.20;581124;244;68872;-67
2022/09/22 00:58:02;;;;;;;;;;;;;;;19.60;71.71;97134.87;581073;244;69100;-66
2022/09/22 01:00:30;;;;;;;;;;;;;;;19.60;71.12;97134.87;581177;244;62948;-66
2022/09/22 01:02:59;;;;;;;;;;;;;;;19.60;70.91;97128.74;577627;244;66648;-66
2022/09/22 01:05:27;;;;;;;;;;;;;;;19.60;71.28;97128.74;575981;246;68945;-66
2022/09/22 01:07:55;;;;;;;;;;;;;;;19.60;71.58;97132.20;575947;246;65145;-66
2022/09/22 01:10:23;;;;;;;;;;;;;;;19.60;71.30;97126.08;575947;246;68810;-66
2022/09/22 01:13:08;;;;;;;;;;;;;;;19.59;71.38;97130.61;575942;246;68789;-66
2022/09/22 01:15:46;;;;;;;;;;;;;;;19.59;71.45;97125.28;575963;246;65068;-66
2022/09/22 01:18:31;;;;;;;;;;;;;;;19.59;71.21;97127.95;575918;246;68647;-65
2022/09/22 01:21:09;;;;;;;;;;;;;;;19.59;71.04;97125.28;571947;248;68745;-65
2022/09/22 01:23:47;;;;;;;;;;;;;;;19.60;71.16;97132.20;574936;246;65364;-64
2022/09/22 01:26:34;;;;;;;;;;;;;;;19.59;71.37;97130.61;575928;246;69092;-66
2022/09/22 01:29:07;;;;;;;;;;;;;;;19.59;71.30;97130.61;575963;246;66704;-66
2022/09/22 01:31:36;;;;;;;;;;;;;;;19.59;71.28;97132.45;575943;246;65481;-65
2022/09/22 01:34:17;;;;;;;;;;;;;;;19.59;71.30;97129.78;575911;246;68861;-65
2022/09/22 01:36:55;;;;;;;;;;;;;;;19.58;71.60;97126.33;575940;246;66837;-65
2022/09/22 01:39:24;;;;;;;;;;;;;;;19.58;71.32;97125.53;575812;245;65358;-65
2022/09/22 01:41:59;;;;;;;;;;;;;;;19.59;71.41;97127.95;576000;246;68820;-64
2022/09/22 01:44:34;;;;;;;;;;;;;;;19.58;71.51;97123.66;575961;246;68722;-64
2022/09/22 01:47:03;;;;;;;;;;;;;;;19.58;71.33;97117.53;575947;246;65267;-64
2022/09/22 01:49:32;;;;;;;;;;;;;;;19.58;71.23;97123.66;575911;244;66665;-65
2022/09/22 01:52:01;;;;;;;;;;;;;;;19.58;71.20;97122.86;575958;246;68711;-66
2022/09/22 01:54:33;;;;;;;;;;;;;;;19.58;71.20;97123.66;575945;246;65043;-66
2022/09/22 01:57:02;;;;;;;;;;;;;;;19.58;71.34;97126.33;575946;245;68766;-66
2022/09/22 01:59:31;;;;;;;;;;;;;;;19.57;71.26;97127.39;575873;246;68790;-66
2022/09/22 02:02:00;;;;;;;;;;;;;;;19.57;71.46;97116.73;576811;245;63000;-66
2022/09/22 02:04:32;;;;;;;;;;;;;;;19.58;71.70;97122.86;579270;245;68877;-66
2022/09/22 02:07:01;;;;;;;;;;;;;;;19.57;71.44;97116.73;579321;245;68494;-66
2022/09/22 02:09:30;;;;;;;;;;;;;;;19.57;71.29;97111.41;579340;245;65187;-66
2022/09/22 02:11:58;;;;;;;;;;;;;;;19.57;71.30;97114.06;579313;245;66664;-66
2022/09/22 02:14:26;;;;;;;;;;;;;;;19.56;71.33;97115.14;579247;245;69032;-66
2022/09/22 02:16:54;;;;;;;;;;;;;;;19.57;71.58;97122.06;579293;245;65156;-66
2022/09/22 02:19:33;;;;;;;;;;;;;;;19.57;71.63;97121.27;579333;245;66589;-66
2022/09/22 02:22:00;;;;;;;;;;;;;;;19.56;71.50;97117.80;579188;245;66618;-66
2022/09/22 02:24:29;;;;;;;;;;;;;;;19.56;71.56;97123.14;579356;245;62996;-66
2022/09/22 02:26:57;;;;;;;;;;;;;;;19.55;71.53;97126.84;579322;245;68932;-66
2022/09/22 02:29:26;;;;;;;;;;;;;;;19.57;71.63;97126.59;579324;245;68779;-67
2022/09/22 02:31:55;;;;;;;;;;;;;;;19.56;71.56;97120.47;579339;245;65061;-66
2022/09/22 02:34:22;;;;;;;;;;;;;;;19.57;71.62;97121.27;579324;245;68520;-66
2022/09/22 02:36:57;;;;;;;;;;;;;;;19.56;71.76;97125.80;579354;245;68766;-66
2022/09/22 02:39:30;;;;;;;;;;;;;;;19.56;71.75;97119.64;579293;245;65032;-66
2022/09/22 02:42:05;;;;;;;;;;;;;;;19.56;71.79;97123.14;579275;244;69107;-66
2022/09/22 02:44:43;;;;;;;;;;;;;;;19.55;71.74;97121.52;579313;245;66682;-67
2022/09/22 02:47:15;;;;;;;;;;;;;;;19.55;71.81;97129.51;579135;245;62935;-66
2022/09/22 02:49:43;;;;;;;;;;;;;;;19.56;71.91;97119.64;579280;244;66715;-66
2022/09/22 02:52:12;;;;;;;;;;;;;;;19.56;71.78;97130.31;579341;245;66706;-66
2022/09/22 02:54:40;;;;;;;;;;;;;;;19.54;71.80;97125.25;579347;245;65063;-66
2022/09/22 02:57:09;;;;;;;;;;;;;;;19.55;71.91;97128.72;579363;245;68504;-66
2022/09/22 02:59:37;;;;;;;;;;;;;;;19.55;71.63;97123.38;579321;245;68473;-66
2022/09/22 03:02:04;;;;;;;;;;;;;;;19.55;71.84;97126.84;579326;245;63671;-66
2022/09/22 03:04:32;;;;;;;;;;;;;;;19.55;71.83;97123.38;579351;245;68473;-65
2022/09/22 03:06:59;;;;;;;;;;;;;;;19.55;72.17;97124.18;579322;245;68470;-65
2022/09/22 03:09:26;;;;;;;;;;;;;;;19.54;72.06;97125.25;579346;245;65062;-65
2022/09/22 03:11:54;;;;;;;;;;;;;;;19.54;71.90;97117.25;579360;245;68569;-65
2022/09/22 03:14:21;;;;;;;;;;;;;;;19.54;71.73;97116.45;579327;245;68472;-65
2022/09/22 03:16:49;;;;;;;;;;;;;;;19.54;71.82;97111.92;579391;245;65029;-65
2022/09/22 03:19:16;;;;;;;;;;;;;;;19.55;71.85;97118.05;579318;245;73303;-65
2022/09/22 03:21:44;;;;;;;;;;;;;;;19.54;72.00;97117.25;579321;245;68548;-65
2022/09/22 03:24:11;;;;;;;;;;;;;;;19.53;71.78;97120.96;579326;245;65394;-65
2022/09/22 03:26:39;;;;;;;;;;;;;;;19.54;71.89;97124.45;579313;245;68727;-65
2022/09/22 03:29:06;;;;;;;;;;;;;;;19.54;71.86;97116.45;579294;245;69056;-65
2022/09/22 03:31:34;;;;;;;;;;;;;;;19.52;72.03;97114.83;579316;245;65083;-65
2022/09/22 03:34:01;;;;;;;;;;;;;;;19.53;72.00;97120.96;579329;245;68833;-65
2022/09/22 03:36:29;;;;;;;;;;;;;;;19.53;71.85;97126.30;579310;245;68686;-65
2022/09/22 03:38:56;;;;;;;;;;;;;;;19.53;72.09;97131.62;579320;245;65459;-66
2022/09/22 03:41:24;;;;;;;;;;;;;;;19.53;71.86;97123.62;579321;245;68962;-66
2022/09/22 03:43:52;;;;;;;;;;;;;;;19.53;71.81;97123.62;579361;245;68746;-66
2022/09/22 03:46:19;;;;;;;;;;;;;;;19.52;72.02;97116.70;579325;245;63023;-66
2022/09/22 03:48:47;;;;;;;;;;;;;;;19.53;71.79;97126.30;579313;245;68534;-66
2022/09/22 03:51:14;;;;;;;;;;;;;;;19.52;72.10;97130.03;579324;245;68675;-66
2022/09/22 03:53:42;;;;;;;;;;;;;;;19.52;72.29;97136.16;579288;245;65365;-66
2022/09/22 03:56:11;;;;;;;;;;;;;;;19.53;72.00;97136.95;579362;245;69046;-66
2022/09/22 03:58:39;;;;;;;;;;;;;;;19.52;72.08;97130.03;579262;245;68704;-67
2022/09/22 04:01:07;;;;;;;;;;;;;;;19.52;72.34;97141.48;579309;245;63134;-66
2022/09/22 04:03:34;;;;;;;;;;;;;;;19.51;72.24;97133.77;579264;245;68785;-66
2022/09/22 04:06:03;;;;;;;;;;;;;;;19.52;72.06;97140.69;579321;245;68721;-66
2022/09/22 04:08:30;;;;;;;;;;;;;;;19.51;72.18;97145.23;579333;245;63202;-66
2022/09/22 04:10:58;;;;;;;;;;;;;;;19.51;72.37;97144.43;579345;245;66697;-66
2022/09/22 04:13:26;;;;;;;;;;;;;;;19.51;72.01;97145.23;579300;245;68750;-66
2022/09/22 04:15:54;;;;;;;;;;;;;;;19.51;72.20;97150.56;579326;245;65025;-66
2022/09/22 04:18:23;;;;;;;;;;;;;;;19.51;72.48;97144.43;579284;245;66689;-66
2022/09/22 04:20:52;;;;;;;;;;;;;;;19.51;72.52;97144.43;579357;245;68686;-66
2022/09/22 04:23:20;;;;;;;;;;;;;;;19.51;72.56;97145.23;579297;245;70280;-66
2022/09/22 04:25:48;;;;;;;;;;;;;;;19.50;72.32;97143.60;579299;245;67770;-66
2022/09/22 04:28:15;;;;;;;;;;;;;;;19.50;72.09;97142.80;579298;245;66650;-66
2022/09/22 04:30:43;;;;;;;;;;;;;;;19.50;72.21;97140.14;579315;245;63153;-66
2022/09/22 04:33:10;;;;;;;;;;;;;;;19.51;72.32;97144.43;579340;245;66678;-66
2022/09/22 04:35:38;;;;;;;;;;;;;;;19.50;72.15;97140.14;579369;245;66431;-66
2022/09/22 04:38:05;;;;;;;;;;;;;;;19.50;72.21;97150.80;579314;245;65092;-66
2022/09/22 04:40:33;;;;;;;;;;;;;;;19.51;72.33;97149.77;579294;245;68866;-66
2022/09/22 04:43:01;;;;;;;;;;;;;;;19.50;72.11;97154.27;579284;245;69003;-66
2022/09/22 04:45:28;;;;;;;;;;;;;;;19.51;72.32;97155.09;579319;245;65027;-66
2022/09/22 04:47:56;;;;;;;;;;;;;;;19.50;72.34;97154.27;579331;245;68952;-65
2022/09/22 04:50:23;;;;;;;;;;;;;;;19.49;72.36;97144.67;579300;245;68716;-65
2022/09/22 04:52:52;;;;;;;;;;;;;;;19.50;72.03;97148.14;579304;245;65080;-65
2022/09/22 04:55:20;;;;;;;;;;;;;;;19.49;72.07;97150.00;579301;245;66795;-67
2022/09/22 04:57:48;;;;;;;;;;;;;;;19.49;71.98;97146.55;579312;245;68703;-67
2022/09/22 05:00:16;;;;;;;;;;;;;;;19.49;72.46;97143.87;579321;245;65063;-67
2022/09/22 05:02:44;;;;;;;;;;;;;;;19.49;72.17;97142.01;577313;242;68529;-67
2022/09/22 05:05:12;;;;;;;;;;;;;;;19.48;71.99;97145.75;575958;246;66660;-67
2022/09/22 05:07:43;;;;;;;;;;;;;;;19.49;72.05;97146.55;575913;246;65132;-67
2022/09/22 05:10:11;;;;;;;;;;;;;;;19.48;71.93;97140.41;575968;246;67122;-67
2022/09/22 05:12:39;;;;;;;;;;;;;;;19.49;71.99;97143.87;575984;246;68768;-67
2022/09/22 05:15:08;;;;;;;;;;;;;;;19.48;71.85;97144.95;575965;246;65107;-67
2022/09/22 05:17:35;;;;;;;;;;;;;;;19.49;72.08;97149.20;575938;246;69044;-67
2022/09/22 05:20:06;;;;;;;;;;;;;;;19.49;72.29;97151.88;575928;246;68745;-67
2022/09/22 05:22:34;;;;;;;;;;;;;;;19.49;72.14;97151.88;575960;246;63060;-68
2022/09/22 05:25:01;;;;;;;;;;;;;;;19.49;71.92;97157.20;575983;246;68823;-65
2022/09/22 05:27:29;;;;;;;;;;;;;;;19.48;72.02;97160.94;575946;246;66700;-65
2022/09/22 05:29:56;;;;;;;;;;;;;;;19.48;71.97;97158.27;575942;246;63228;-65
2022/09/22 05:32:24;;;;;;;;;;;;;;;19.48;71.81;97156.41;575876;246;68911;-65
2022/09/22 05:34:51;;;;;;;;;;;;;;;19.47;71.82;97159.31;575922;246;68714;-65
2022/09/22 05:37:19;;;;;;;;;;;;;;;19.48;71.90;97152.95;575934;246;65150;-65
2022/09/22 05:39:46;;;;;;;;;;;;;;;19.48;71.61;97166.27;575968;246;68788;-66
2022/09/22 05:42:14;;;;;;;;;;;;;;;19.48;71.96;97164.41;575939;246;68672;-65
2022/09/22 05:44:41;;;;;;;;;;;;;;;19.47;71.93;97164.65;575947;246;65472;-66
2022/09/22 05:47:09;;;;;;;;;;;;;;;19.47;71.75;97161.98;575924;246;68831;-65
2022/09/22 05:49:36;;;;;;;;;;;;;;;19.46;71.58;97155.86;575975;246;68401;-65
2022/09/22 05:52:04;;;;;;;;;;;;;;;19.47;71.96;97160.11;575980;246;65118;-65
2022/09/22 05:54:31;;;;;;;;;;;;;;;19.47;71.84;97153.98;575972;246;66834;-65
2022/09/22 05:56:59;;;;;;;;;;;;;;;19.47;71.65;97156.65;575361;246;67053;-65
2022/09/22 05:59:26;;;;;;;;;;;;;;;19.46;71.65;97158.52;575479;246;65121;-63
2022/09/22 06:01:54;;;;;;;;;;;;;;;19.46;71.42;97161.19;576566;245;66726;-64
2022/09/22 06:04:21;;;;;;;;;;;;;;;19.46;72.74;97158.52;569972;249;66746;-64
2022/09/22 06:06:49;;;;;;;;;;;;;;;19.46;71.59;97157.72;582544;242;63043;-64
2022/09/22 06:09:16;;;;;;;;;;;;;;;19.46;71.30;97152.39;584535;242;66644;-63
2022/09/22 06:11:44;;;;;;;;;;;;;;;19.46;70.90;97157.72;584587;242;68742;-64
2022/09/22 06:14:14;;;;;;;;;;;;;;;19.47;73.16;97153.98;584572;242;65081;-64
2022/09/22 06:16:42;;;;;;;;;;;;;;;19.46;74.37;97155.06;584602;242;68547;-65
2022/09/22 06:19:09;;;;;;;;;;;;;;;19.43;73.36;97151.05;584579;242;68683;-67
2022/09/22 06:21:37;;;;;;;;;;;;;;;19.43;73.07;97150.24;584567;242;65058;-65
2022/09/22 06:24:06;;;;;;;;;;;;;;;19.44;72.95;97149.97;584623;242;48575;-67
2022/09/22 06:26:34;;;;;;;;;;;;;;;19.45;72.60;97153.44;584564;242;66695;-67
2022/09/22 06:29:01;;;;;;;;;;;;;;;19.45;72.86;97158.77;584580;242;63132;-66
2022/09/22 06:31:29;;;;;;;;;;;;;;;19.45;72.66;97161.42;584629;242;66760;-65
2022/09/22 06:33:56;;;;;;;;;;;;;;;19.44;73.09;97159.84;584594;242;66694;-65
2022/09/22 06:36:30;;;;;;;;;;;;;;;19.44;72.25;97157.97;584576;242;62990;-66
2022/09/22 06:38:57;;;;;;;;;;;;;;;19.44;73.44;97154.50;584407;242;66727;-65
2022/09/22 06:41:25;;;;;;;;;;;;;;;19.45;69.39;97161.42;584570;242;68790;-66
2022/09/22 06:43:59;;;;;;;;;;;;;;;19.45;69.81;97161.42;584543;242;45006;-64
2022/09/22 06:46:25;;;;;;;;;;;;;;;19.46;69.17;97160.39;584395;242;68825;-65
2022/09/22 06:48:58;;;;;;;;;;;;;;;19.46;71.04;97158.52;584367;242;66777;-65
2022/09/22 06:51:25;;;;;;;;;;;;;;;19.46;71.46;97160.39;584487;242;62960;-64
2022/09/22 06:53:53;;;;;;;;;;;;;;;19.46;71.28;97163.05;584474;242;68781;-65
2022/09/22 06:56:23;;;;;;;;;;;;;;;19.46;72.12;97168.38;584625;242;68491;-64
2022/09/22 06:58:51;;;;;;;;;;;;;;;19.47;72.83;97164.65;579747;242;65093;-63
2022/09/22 07:01:19;;;;;;;;;;;;;;;19.45;69.56;97161.42;575956;246;68847;-63
2022/09/22 07:03:46;;;;;;;;;;;;;;;19.47;72.97;97160.11;572785;247;68223;-64
2022/09/22 07:06:17;;;;;;;;;;;;;;;19.46;73.79;97163.85;572724;247;65055;-64
2022/09/22 07:08:44;;;;;;;;;;;;;;;19.46;73.88;97161.19;572707;247;66393;-66
2022/09/22 07:11:12;;;;;;;;;;;;;;;19.45;72.21;97164.92;572771;247;68747;-62
2022/09/22 07:13:41;;;;;;;;;;;;;;;19.46;73.12;97163.05;572757;247;65063;-65
2022/09/22 07:16:09;;;;;;;;;;;;;;;19.46;72.21;97173.72;572736;247;66443;-64
2022/09/22 07:18:41;;;;;;;;;;;;;;;19.48;73.49;97167.06;572714;247;68626;-64
2022/09/22 07:21:10;;;;;;;;;;;;;;;19.49;73.08;97168.66;572716;247;65125;-65
2022/09/22 07:23:38;;;;;;;;;;;;;;;19.47;71.42;97169.98;572774;247;68455;-65
2022/09/22 07:26:07;;;;;;;;;;;;;;;19.48;74.21;97176.94;572730;247;68567;-65
2022/09/22 07:28:35;;;;;;;;;;;;;;;19.45;73.38;97172.92;572730;247;65023;-65
2022/09/22 07:31:08;;;;;;;;;;;;;;;19.45;74.00;97169.42;572689;247;66431;-65
2022/09/22 07:33:33;;;;;;;;;;;;;;;19.44;73.50;97167.83;572525;247;68747;-65
2022/09/22 07:36:07;;;;;;;;;;;;;;;19.44;74.43;97175.83;572659;247;65181;-66
2022/09/22 07:38:35;;;;;;;;;;;;;;;19.44;73.59;97173.16;572616;247;68917;-64
2022/09/22 07:41:05;;;;;;;;;;;;;;;19.43;75.35;97172.36;572676;247;68783;-65
2022/09/22 07:43:33;;;;;;;;;;;;;;;19.42;73.82;97169.94;572736;247;65152;-64
2022/09/22 07:46:01;;;;;;;;;;;;;;;19.43;73.82;97174.23;572739;247;68892;-64
2022/09/22 07:48:47;;;;;;;;;;;;;;;19.42;74.25;97173.41;572676;247;68703;-64
2022/09/22 07:51:20;;;;;;;;;;;;;;;19.42;73.93;97168.07;572741;247;63060;-65
2022/09/22 07:53:48;;;;;;;;;;;;;;;19.42;73.96;97175.27;572605;247;68916;-64
2022/09/22 07:56:19;;;;;;;;;;;;;;;19.41;73.83;97182.47;572684;247;68745;-65
2022/09/22 07:58:53;;;;;;;;;;;;;;;19.41;73.80;97177.14;572679;247;65142;-65
2022/09/22 08:01:21;;;;;;;;;;;;;;;19.43;73.77;97192.89;572678;244;68893;-65
2022/09/22 08:03:49;;;;;;;;;;;;;;;19.42;73.82;97186.73;581135;244;68807;-63
2022/09/22 08:06:18;;;;;;;;;;;;;;;19.42;73.64;97185.94;581182;244;65054;-68
2022/09/22 08:08:51;;;;;;;;;;;;;;;19.43;73.01;97190.22;581138;244;68922;-65
2022/09/22 08:11:17;;;;;;;;;;;;;;;19.42;73.29;97183.27;581068;244;68774;-64
2022/09/22 08:13:46;;;;;;;;;;;;;;;19.43;72.69;97195.55;581167;244;65054;-67
2022/09/22 08:16:13;;;;;;;;;;;;;;;19.42;73.53;97200.05;580764;244;68913;-65
2022/09/22 08:18:41;;;;;;;;;;;;;;;19.43;73.09;97200.88;581188;244;68030;-65
2022/09/22 08:21:08;;;;;;;;;;;;;;;19.43;73.53;97200.88;581190;244;65041;-65
2022/09/22 08:23:36;;;;;;;;;;;;;;;19.43;73.53;97200.88;581188;244;66366;-65
2022/09/22 08:26:05;;;;;;;;;;;;;;;19.43;73.92;97198.22;581164;244;66675;-64
2022/09/22 08:28:32;;;;;;;;;;;;;;;19.42;73.44;97196.59;581185;244;65202;-65
2022/09/22 08:31:00;;;;;;;;;;;;;;;19.42;73.46;97197.39;581157;244;68788;-64
2022/09/22 08:33:29;;;;;;;;;;;;;;;19.42;73.59;97197.39;581130;244;68441;-66
2022/09/22 08:36:02;;;;;;;;;;;;;;;19.42;73.16;97188.59;581007;244;65104;-63
2022/09/22 08:38:27;;;;;;;;;;;;;;;19.43;73.14;97184.89;581039;244;68304;-65
2022/09/22 08:41:02;;;;;;;;;;;;;;;19.46;73.55;97184.38;581168;244;68499;-65
2022/09/22 08:43:31;;;;;;;;;;;;;;;19.47;73.31;97186.77;581082;244;63003;-66
2022/09/22 08:46:00;;;;;;;;;;;;;;;19.48;73.71;97177.73;581173;244;68312;-68
2022/09/22 08:54:04;;;;;;;;;;;;;;;19.51;72.77;97176.42;581179;244;68972;-66
2022/09/22 08:56:33;;;;;;;;;;;;;;;19.51;72.93;97176.42;581175;244;66461;-68
2022/09/22 08:59:07;;;;;;;;;;;;;;;19.51;73.59;97177.21;581163;244;62730;-66
2022/09/22 09:01:45;;;;;;;;;;;;;;;19.51;72.87;97176.42;581094;244;68515;-67
2022/09/22 09:04:17;;;;;;;;;;;;;;;19.52;72.57;97183.34;580974;244;66433;-67
2022/09/22 09:06:46;;;;;;;;;;;;;;;19.53;73.18;97179.61;580510;244;63047;-65
2022/09/22 09:09:18;;;;;;;;;;;;;;;19.54;72.93;97167.91;581100;244;68533;-67
2022/09/22 09:11:50;;;;;;;;;;;;;;;19.54;72.87;97175.10;580976;244;66469;-67
2022/09/22 09:14:20;;;;;;;;;;;;;;;19.54;72.98;97169.77;581178;244;65143;-68
2022/09/22 09:16:50;;;;;;;;;;;;;;;19.54;72.84;97170.56;580955;244;68545;-66
2022/09/22 09:19:20;;;;;;;;;;;;;;;19.54;72.78;97167.91;581207;244;66389;-66
2022/09/22 09:21:49;;;;;;;;;;;;;;;19.55;72.74;97168.70;581196;244;65232;-67
2022/09/22 09:24:33;;;;;;;;;;;;;;;19.55;73.03;97168.70;581185;244;68845;-64
2022/09/22 09:27:08;;;;;;;;;;;;;;;19.55;72.88;97161.50;580978;244;68508;-65
2022/09/22 09:29:33;;;;;;;;;;;;;;;19.55;72.74;97153.50;581048;244;63072;-65
2022/09/22 09:32:02;;;;;;;;;;;;;;;19.56;72.66;97156.97;581152;244;66423;-64
2022/09/22 09:34:30;;;;;;;;;;;;;;;19.56;72.83;97160.45;581241;244;68237;-65
2022/09/22 09:37:06;;;;;;;;;;;;;;;19.57;72.74;97153.25;581148;244;63129;-66
2022/09/22 09:39:36;;;;;;;;;;;;;;;19.56;72.35;97157.79;580909;244;68606;-64
2022/09/22 09:42:05;;;;;;;;;;;;;;;19.56;72.43;97157.79;580988;244;66712;-65
2022/09/22 09:44:38;;;;;;;;;;;;;;;19.56;72.66;97146.30;580782;244;62923;-64
2022/09/22 09:47:11;;;;;;;;;;;;;;;19.56;72.72;97154.30;581075;244;68571;-65
2022/09/22 09:49:39;;;;;;;;;;;;;;;19.57;72.54;97153.25;580903;244;68429;-66
2022/09/22 09:52:08;;;;;;;;;;;;;;;19.56;72.40;97152.46;581160;244;65046;-65
2022/09/22 09:54:36;;;;;;;;;;;;;;;19.57;72.49;97158.59;581059;244;68566;-63
2022/09/22 09:57:17;;;;;;;;;;;;;;;19.55;67.85;97150.04;581150;244;66401;-63
2022/09/22 10:02:34;;;;;;;;;;;;;;;19.53;71.74;97147.62;580616;244;50227;-64
2022/09/22 10:05:03;;;;;;;;;;;;;;;19.51;72.22;97141.77;581185;244;66562;-65
2022/09/22 10:07:33;;;;;;;;;;;;;;;19.50;72.55;97142.80;581139;244;65129;-65
2022/09/22 10:10:18;;;;;;;;;;;;;;;19.49;71.87;97151.88;580481;244;68708;-64
2022/09/22 10:12:46;;;;;;;;;;;;;;;19.48;72.19;97145.75;581158;244;66492;-68
2022/09/22 10:15:18;;;;;;;;;;;;;;;19.47;72.10;97151.32;581159;244;63113;-68
2022/09/22 10:17:47;;;;;;;;;;;;;;;19.47;71.99;97149.45;580343;244;66357;-68
2022/09/22 10:20:19;;;;;;;;;;;;;;;19.46;71.68;97149.73;581167;244;68589;-68
2022/09/22 10:22:47;;;;;;;;;;;;;;;19.47;72.47;97149.45;581111;244;65071;-68
2022/09/22 10:25:24;;;;;;;;;;;;;;;19.47;72.43;97143.33;581196;244;68382;-68
2022/09/22 10:28:08;;;;;;;;;;;;;;;19.46;72.42;97144.39;581170;244;68481;-68
2022/09/22 10:30:39;;;;;;;;;;;;;;;19.46;72.65;97141.73;581034;244;65051;-68
2022/09/22 10:33:14;;;;;;;;;;;;;;;19.45;72.19;97145.44;581196;244;68672;-68
2022/09/22 10:36:00;;;;;;;;;;;;;;;19.45;72.00;97134.77;581207;244;68520;-69
2022/09/22 10:38:28;;;;;;;;;;;;;;;19.44;71.69;97136.64;581165;244;63031;-69
2022/09/22 10:40:56;;;;;;;;;;;;;;;19.45;71.12;97132.94;581173;244;68684;-71
2022/09/22 10:43:35;;;;;;;;;;;;;;;19.44;71.05;97128.65;581156;244;68320;-71
2022/09/22 10:46:05;;;;;;;;;;;;;;;19.45;71.25;97124.94;581200;244;64919;-70
2022/09/22 10:48:37;;;;;;;;;;;;;;;19.45;71.58;97118.78;581209;244;68361;-69
2022/09/22 10:51:13;;;;;;;;;;;;;;;19.45;70.68;97116.12;581002;244;66013;-69
2022/09/22 10:53:43;;;;;;;;;;;;;;;19.45;70.36;97108.12;581171;244;63050;-68
2022/09/22 10:56:12;;;;;;;;;;;;;;;19.47;71.68;97119.34;581202;244;66114;-69
2022/09/22 10:58:58;;;;;;;;;;;;;;;19.46;70.94;97125.73;580654;244;66712;-69
2022/09/22 11:01:39;;;;;;;;;;;;;;;19.44;70.37;97120.66;581136;244;63038;-70
2022/09/22 11:04:14;;;;;;;;;;;;;;;19.45;71.50;97124.11;581182;244;68603;-68
2022/09/22 11:12:35;;;;;;;;;;;;;;;19.43;72.08;97104.94;581242;244;68454;-69
2022/09/22 11:15:08;;;;;;;;;;;;;;;19.43;70.97;97104.94;581081;244;68172;-69
2022/09/22 11:17:53;;;;;;;;;;;;;;;19.43;72.71;97100.41;581061;244;63355;-69
2022/09/22 11:20:22;;;;;;;;;;;;;;;19.42;70.91;97106.77;581179;244;67935;-70
2022/09/22 11:22:51;;;;;;;;;;;;;;;19.41;70.61;97097.19;581027;244;68037;-69
2022/09/22 11:25:26;;;;;;;;;;;;;;;19.43;70.22;97099.61;580961;244;65217;-69
2022/09/22 11:27:55;;;;;;;;;;;;;;;19.42;70.50;97098.78;580304;241;68786;-69
2022/09/22 11:30:22;;;;;;;;;;;;;;;19.42;69.90;97097.98;580905;244;68253;-69
2022/09/22 11:32:55;;;;;;;;;;;;;;;19.41;70.18;97102.52;581179;241;63175;-69
2022/09/22 11:35:27;;;;;;;;;;;;;;;19.42;70.17;97104.11;581234;244;65986;-69
2022/09/22 11:37:56;;;;;;;;;;;;;;;19.40;70.02;97100.92;581223;244;68027;-71
2022/09/22 11:40:28;;;;;;;;;;;;;;;19.41;70.84;97097.19;581193;244;64983;-69
2022/09/22 11:42:57;;;;;;;;;;;;;;;19.40;70.06;97097.46;581241;244;68482;-69
2022/09/22 11:45:43;;;;;;;;;;;;;;;19.39;69.51;97088.64;580975;244;68423;-69
2022/09/22 11:48:12;;;;;;;;;;;;;;;19.39;68.90;97079.84;581185;244;64122;-69
2022/09/22 11:50:42;;;;;;;;;;;;;;;19.39;70.21;97071.85;580986;244;68579;-70
2022/09/22 11:53:24;;;;;;;;;;;;;;;19.39;70.85;97074.52;581168;244;66415;-69
2022/09/22 11:55:56;;;;;;;;;;;;;;;19.39;73.96;97072.65;581169;244;63095;-70
2022/09/22 11:58:25;;;;;;;;;;;;;;;19.38;73.98;97071.05;580975;244;68494;-70
2022/09/22 12:01:03;;;;;;;;;;;;;;;19.38;74.22;97071.05;581204;244;68488;-70
2022/09/22 12:03:36;;;;;;;;;;;;;;;19.37;72.49;97077.45;576395;244;62893;-69
2022/09/22 12:06:05;;;;;;;;;;;;;;;19.38;72.75;97081.72;575961;246;66167;-70
2022/09/22 12:08:34;;;;;;;;;;;;;;;19.38;69.88;97087.05;575930;246;68166;-69
2022/09/22 12:11:03;;;;;;;;;;;;;;;19.39;67.63;97085.17;575977;246;62819;-69
2022/09/22 12:13:31;;;;;;;;;;;;;;;19.39;68.80;97077.98;575939;246;66274;-69
2022/09/22 12:16:18;;;;;;;;;;;;;;;19.41;68.02;97085.73;575998;246;68767;-69
2022/09/22 12:18:47;;;;;;;;;;;;;;;19.42;67.91;97087.32;575927;246;62891;-70
2022/09/22 12:21:29;;;;;;;;;;;;;;;19.43;69.26;97083.62;575958;246;66316;-69
2022/09/22 12:23:58;;;;;;;;;;;;;;;19.42;68.42;97079.33;575935;246;68401;-68
2022/09/22 12:26:30;;;;;;;;;;;;;;;19.43;67.28;97070.29;575978;246;65274;-69
2022/09/22 12:28:59;;;;;;;;;;;;;;;19.44;69.29;97070.02;575973;246;68406;-69
2022/09/22 12:31:34;;;;;;;;;;;;;;;19.45;71.09;97070.81;575948;246;66715;-68
2022/09/22 12:34:03;;;;;;;;;;;;;;;19.45;67.88;97070.81;575933;245;64967;-69
2022/09/22 12:36:32;;;;;;;;;;;;;;;19.45;66.30;97062.81;575944;246;68392;-69
2022/09/22 12:39:16;;;;;;;;;;;;;;;19.47;64.50;97066.03;575915;246;66679;-70
2022/09/22 12:41:46;;;;;;;;;;;;;;;19.50;64.50;97068.17;575920;246;65084;-70
2022/09/22 12:44:15;;;;;;;;;;;;;;;19.51;64.65;97070.59;575896;242;66926;-69
2022/09/22 12:46:43;;;;;;;;;;;;;;;19.53;65.66;97072.98;575931;246;68825;-69
2022/09/22 12:49:12;;;;;;;;;;;;;;;19.56;67.01;97067.16;575954;246;62940;-68
2022/09/22 12:51:42;;;;;;;;;;;;;;;19.55;65.14;97064.73;575968;246;68838;-68
2022/09/22 12:54:28;;;;;;;;;;;;;;;19.57;64.28;97062.62;575842;246;68682;-68
2022/09/22 12:56:55;;;;;;;;;;;;;;;19.58;65.11;97062.34;575749;246;65073;-68
2022/09/22 12:59:39;;;;;;;;;;;;;;;19.60;65.17;97060.23;575937;246;66452;-68
2022/09/22 13:02:16;;;;;;;;;;;;;;;19.60;65.19;97054.89;575910;245;66758;-68
2022/09/22 13:04:58;;;;;;;;;;;;;;;19.63;65.00;97056.24;575938;246;63083;-69
2022/09/22 13:07:36;;;;;;;;;;;;;;;19.63;64.94;97057.03;575920;246;66341;-70
2022/09/22 13:10:23;;;;;;;;;;;;;;;19.66;65.30;97061.08;575931;246;68780;-69
2022/09/22 13:13:05;;;;;;;;;;;;;;;19.67;65.09;97063.50;575906;246;63076;-69
2022/09/22 13:15:49;;;;;;;;;;;;;;;19.69;65.18;97069.34;575920;246;68535;-69
2022/09/22 13:18:37;;;;;;;;;;;;;;;19.71;65.23;97074.44;575933;246;68792;-68